Time;durP1;ratioP1;P1;durP2;ratioP2;P2;SDS_P1;SDS_P2;PMS_P1;PMS_P2;Temp;Humidity;BMP_temperature;BMP_pressure;BME280_temperature;BME280_humidity;BME280_pressure;Samples;Min_cycle;Max_cycle;Signal;HPM_P1;HPM_P2
2023/12/12 00:01:39;;;;;;;7.10;3.60;;;;;;;;;;5058610;28;20202;-70
2023/12/12 00:04:06;;;;;;;8.03;4.00;;;;;;;;;;5051151;28;20293;-67
2023/12/12 00:06:33;;;;;;;5.03;3.23;;;;;;;;;;5050247;28;20214;-69
2023/12/12 00:09:01;;;;;;;7.00;2.87;;;;;;;;;;5053688;28;20217;-69
2023/12/12 00:11:28;;;;;;;7.93;3.23;;;;;;;;;;5043880;28;20217;-68
2023/12/12 00:13:55;;;;;;;5.83;2.60;;;;;;;;;;5034500;28;20222;-69
2023/12/12 00:16:22;;;;;;;5.03;2.67;;;;;;;;;;5048173;28;20258;-69
2023/12/12 00:18:50;;;;;;;6.77;2.80;;;;;;;;;;5053128;28;20260;-70
2023/12/12 00:21:17;;;;;;;4.50;2.27;;;;;;;;;;5048166;28;20297;-69
2023/12/12 00:23:45;;;;;;;3.63;2.40;;;;;;;;;;5036321;28;20203;-69
2023/12/12 00:26:12;;;;;;;4.03;2.53;;;;;;;;;;5055597;28;20658;-70
2023/12/12 00:28:40;;;;;;;6.27;3.10;;;;;;;;;;5051039;28;20264;-69
2023/12/12 00:31:07;;;;;;;7.90;2.77;;;;;;;;;;5043808;28;20326;-68
2023/12/12 00:33:34;;;;;;;3.83;2.47;;;;;;;;;;5028877;28;20215;-69
2023/12/12 00:36:02;;;;;;;6.80;2.27;;;;;;;;;;5025462;28;20227;-70
2023/12/12 00:38:29;;;;;;;3.53;2.60;;;;;;;;;;5045000;28;20207;-69
2023/12/12 00:40:57;;;;;;;16.37;9.07;;;;;;;;;;5050395;28;20222;-67
2023/12/12 00:43:24;;;;;;;32.50;15.00;;;;;;;;;;5050962;28;20203;-69
2023/12/12 00:45:52;;;;;;;47.30;19.20;;;;;;;;;;5050775;28;20206;-71
2023/12/12 00:48:19;;;;;;;38.17;15.53;;;;;;;;;;5058457;28;20709;-68
2023/12/12 00:50:48;;;;;;;20.60;10.43;;;;;;;;;;5037478;28;20266;-67
2023/12/12 00:53:15;;;;;;;5.97;3.93;;;;;;;;;;5030665;28;20215;-70
2023/12/12 00:55:43;;;;;;;7.33;5.43;;;;;;;;;;5050861;28;20229;-69
2023/12/12 00:58:10;;;;;;;20.00;9.13;;;;;;;;;;5062138;28;20253;-69
2023/12/12 01:00:37;;;;;;;16.07;9.33;;;;;;;;;;5052216;28;20242;-66
2023/12/12 01:03:05;;;;;;;18.10;10.43;;;;;;;;;;5038057;28;20203;-68
2023/12/12 01:05:32;;;;;;;32.20;16.67;;;;;;;;;;5023321;28;20213;-69
2023/12/12 01:08:00;;;;;;;17.30;10.60;;;;;;;;;;5058571;28;20613;-69
2023/12/12 01:10:27;;;;;;;12.57;8.03;;;;;;;;;;5056000;28;20229;-69
2023/12/12 01:12:54;;;;;;;7.33;3.47;;;;;;;;;;5055410;28;20329;-71
2023/12/12 01:15:22;;;;;;;5.47;4.17;;;;;;;;;;5045491;28;20222;-68
2023/12/12 01:17:49;;;;;;;6.13;3.20;;;;;;;;;;5045291;28;20294;-70
2023/12/12 01:20:16;;;;;;;4.90;3.50;;;;;;;;;;5051105;28;20575;-69
2023/12/12 01:22:44;;;;;;;5.37;3.80;;;;;;;;;;5061970;28;20202;-69
2023/12/12 01:25:11;;;;;;;7.17;3.30;;;;;;;;;;5056109;28;20201;-69
2023/12/12 01:27:38;;;;;;;11.53;4.43;;;;;;;;;;5038231;28;20692;-69
2023/12/12 01:30:06;;;;;;;5.83;4.00;;;;;;;;;;5073109;28;20687;-70
2023/12/12 01:32:33;;;;;;;6.93;5.07;;;;;;;;;;5063001;28;20245;-69
2023/12/12 01:35:01;;;;;;;6.83;4.90;;;;;;;;;;5046846;28;20195;-70
2023/12/12 01:37:28;;;;;;;6.30;5.60;;;;;;;;;;5032483;28;20205;-68
2023/12/12 01:39:56;;;;;;;9.27;5.67;;;;;;;;;;5048370;28;20603;-69
2023/12/12 01:42:23;;;;;;;6.53;4.50;;;;;;;;;;5049597;28;20230;-70
2023/12/12 01:44:50;;;;;;;6.37;4.30;;;;;;;;;;5046536;28;20202;-70
2023/12/12 01:47:18;;;;;;;8.97;4.83;;;;;;;;;;5024209;28;20647;-69
2023/12/12 01:49:45;;;;;;;9.13;6.90;;;;;;;;;;5043420;28;20690;-70
2023/12/12 01:52:13;;;;;;;15.03;8.53;;;;;;;;;;5058682;28;20208;-69
2023/12/12 01:54:45;;;;;;;12.00;8.90;;;;;;;;;;5054070;28;20202;-68
2023/12/12 01:57:14;;;;;;;8.27;6.43;;;;;;;;;;5034636;28;20214;-69
2023/12/12 01:59:41;;;;;;;9.03;5.33;;;;;;;;;;5046959;28;20717;-69
2023/12/12 02:02:11;;;;;;;8.60;5.40;;;;;;;;;;5052445;28;20261;-67
2023/12/12 02:04:39;;;;;;;5.53;4.50;;;;;;;;;;5053002;28;20213;-68
2023/12/12 02:07:06;;;;;;;7.87;4.70;;;;;;;;;;5025580;28;20211;-69
2023/12/12 02:09:34;;;;;;;5.00;4.37;;;;;;;;;;5036741;28;20261;-70
2023/12/12 02:12:01;;;;;;;5.17;4.30;;;;;;;;;;5050500;28;20203;-68
2023/12/12 02:14:28;;;;;;;5.37;4.23;;;;;;;;;;5053736;28;20214;-68
2023/12/12 02:16:56;;;;;;;4.67;3.90;;;;;;;;;;5040342;28;20231;-70
2023/12/12 02:19:23;;;;;;;4.97;4.00;;;;;;;;;;5057167;28;20222;-69
2023/12/12 02:21:51;;;;;;;4.70;4.30;;;;;;;;;;5052288;28;20202;-69
2023/12/12 02:24:19;;;;;;;4.47;3.87;;;;;;;;;;5045776;28;20248;-70
2023/12/12 02:26:46;;;;;;;4.63;3.90;;;;;;;;;;5060694;28;20566;-69
2023/12/12 02:29:14;;;;;;;4.87;4.07;;;;;;;;;;5056072;28;20237;-68
2023/12/12 02:31:41;;;;;;;5.20;4.30;;;;;;;;;;5062914;28;20231;-69
2023/12/12 02:34:08;;;;;;;4.13;3.70;;;;;;;;;;5058722;28;20681;-68
2023/12/12 02:36:36;;;;;;;4.60;4.03;;;;;;;;;;5066946;28;20272;-69
2023/12/12 02:39:03;;;;;;;4.67;4.20;;;;;;;;;;5058853;28;20309;-68
2023/12/12 02:41:30;;;;;;;9.63;4.43;;;;;;;;;;5052551;28;20697;-68
2023/12/12 02:43:58;;;;;;;25.60;6.13;;;;;;;;;;5050889;28;20207;-69
2023/12/12 02:46:25;;;;;;;19.20;4.40;;;;;;;;;;5041429;28;20633;-70
2023/12/12 02:48:52;;;;;;;59.70;5.37;;;;;;;;;;5059349;28;20680;-70
2023/12/12 02:51:20;;;;;;;25.23;4.57;;;;;;;;;;5056322;28;20245;-68
2023/12/12 02:53:47;;;;;;;50.93;4.97;;;;;;;;;;5053409;28;20214;-67
2023/12/12 02:56:14;;;;;;;8.40;3.73;;;;;;;;;;5043997;28;20231;-67
2023/12/12 02:58:41;;;;;;;4.53;3.63;;;;;;;;;;5051395;28;20214;-69
2023/12/12 03:01:10;;;;;;;3.90;3.50;;;;;;;;;;5050920;28;20224;-70
2023/12/12 03:03:39;;;;;;;4.70;3.40;;;;;;;;;;5046379;28;20225;-69
2023/12/12 03:06:09;;;;;;;5.13;3.63;;;;;;;;;;5044429;28;20278;-67
2023/12/12 03:08:36;;;;;;;4.13;3.73;;;;;;;;;;5059354;28;20208;-68
2023/12/12 03:11:03;;;;;;;5.67;3.90;;;;;;;;;;5053366;28;20701;-68
2023/12/12 03:13:32;;;;;;;3.73;3.33;;;;;;;;;;5058120;28;20209;-70
2023/12/12 03:16:00;;;;;;;4.40;3.80;;;;;;;;;;5049629;28;20272;-69
2023/12/12 03:18:27;;;;;;;4.10;3.53;;;;;;;;;;5051308;28;20253;-69
2023/12/12 03:20:55;;;;;;;5.37;4.20;;;;;;;;;;5043703;28;20221;-69
2023/12/12 03:23:22;;;;;;;5.43;3.77;;;;;;;;;;5030946;28;20206;-70
2023/12/12 03:25:50;;;;;;;4.77;3.73;;;;;;;;;;5056658;28;20224;-68
2023/12/12 03:28:17;;;;;;;4.23;3.60;;;;;;;;;;5054017;28;20228;-68
2023/12/12 03:30:45;;;;;;;8.77;4.40;;;;;;;;;;5051039;28;20213;-69
2023/12/12 03:33:12;;;;;;;5.07;4.50;;;;;;;;;;5048200;28;20211;-68
2023/12/12 03:35:40;;;;;;;6.10;4.13;;;;;;;;;;5048577;28;20209;-69
2023/12/12 03:38:07;;;;;;;7.43;5.30;;;;;;;;;;5043927;28;20213;-69
2023/12/12 03:40:34;;;;;;;8.80;4.83;;;;;;;;;;5062224;28;20224;-69
2023/12/12 03:43:02;;;;;;;6.03;4.90;;;;;;;;;;5049550;28;20197;-69
2023/12/12 03:45:29;;;;;;;8.07;5.10;;;;;;;;;;5063083;28;20264;-68
2023/12/12 03:47:57;;;;;;;7.30;5.00;;;;;;;;;;5056435;28;20198;-68
2023/12/12 03:50:25;;;;;;;6.43;5.50;;;;;;;;;;5048354;28;20278;-69
2023/12/12 03:52:52;;;;;;;7.97;5.50;;;;;;;;;;5054035;28;20661;-70
2023/12/12 03:55:19;;;;;;;6.77;5.50;;;;;;;;;;5057341;28;20205;-69
2023/12/12 03:57:47;;;;;;;10.50;6.23;;;;;;;;;;5052021;28;20686;-69
2023/12/12 04:00:15;;;;;;;7.80;5.63;;;;;;;;;;5056065;28;20222;-70
2023/12/12 04:02:42;;;;;;;9.33;6.30;;;;;;;;;;5052944;28;20216;-69
2023/12/12 04:05:09;;;;;;;8.17;6.27;;;;;;;;;;5058971;28;20294;-68
2023/12/12 04:07:38;;;;;;;9.27;6.30;;;;;;;;;;5050939;28;20209;-70
2023/12/12 04:10:06;;;;;;;9.77;6.33;;;;;;;;;;5053165;28;20214;-70
2023/12/12 04:12:34;;;;;;;9.40;7.27;;;;;;;;;;5064800;28;20297;-69
2023/12/12 04:15:02;;;;;;;11.23;6.93;;;;;;;;;;5061828;28;20205;-69
2023/12/12 04:17:30;;;;;;;16.90;8.07;;;;;;;;;;5056789;28;20229;-67
2023/12/12 04:19:58;;;;;;;13.87;7.57;;;;;;;;;;5035094;28;20287;-67
2023/12/12 04:22:25;;;;;;;17.87;7.40;;;;;;;;;;5057543;28;20559;-69
2023/12/12 04:24:52;;;;;;;14.17;7.33;;;;;;;;;;5051309;28;20299;-70
2023/12/12 04:27:20;;;;;;;21.43;7.20;;;;;;;;;;5052294;28;20289;-70
2023/12/12 04:29:47;;;;;;;27.03;8.37;;;;;;;;;;5051880;28;20328;-68
2023/12/12 04:32:15;;;;;;;22.83;8.60;;;;;;;;;;5056681;28;20216;-70
2023/12/12 04:34:43;;;;;;;28.23;9.63;;;;;;;;;;5059808;28;20237;-69
2023/12/12 04:37:11;;;;;;;27.83;8.90;;;;;;;;;;5067040;28;20321;-69
2023/12/12 04:39:38;;;;;;;29.07;8.93;;;;;;;;;;5073194;28;20240;-69
2023/12/12 04:42:05;;;;;;;41.27;9.33;;;;;;;;;;5036070;28;20202;-69
2023/12/12 04:44:33;;;;;;;50.50;10.67;;;;;;;;;;5057358;28;20601;-70
2023/12/12 04:47:00;;;;;;;32.60;10.40;;;;;;;;;;5057199;28;20224;-69
2023/12/12 04:49:28;;;;;;;49.17;9.90;;;;;;;;;;5053975;28;20225;-70
2023/12/12 04:51:55;;;;;;;49.50;9.73;;;;;;;;;;5059234;28;20209;-69
2023/12/12 04:54:22;;;;;;;53.30;10.93;;;;;;;;;;5054069;28;20585;-69
2023/12/12 04:56:49;;;;;;;43.87;9.93;;;;;;;;;;5057009;28;20236;-68
2023/12/12 04:59:17;;;;;;;46.23;11.00;;;;;;;;;;5060403;28;20218;-69
2023/12/12 05:01:44;;;;;;;35.57;10.00;;;;;;;;;;5054253;28;20288;-69
2023/12/12 05:04:11;;;;;;;45.60;9.53;;;;;;;;;;5060004;28;20651;-70
2023/12/12 05:06:38;;;;;;;51.67;10.60;;;;;;;;;;5056693;28;20206;-69
2023/12/12 05:09:06;;;;;;;44.23;11.50;;;;;;;;;;5030140;28;20255;-69
2023/12/12 05:11:33;;;;;;;54.23;12.00;;;;;;;;;;5048281;28;20705;-69
2023/12/12 05:14:01;;;;;;;55.27;11.00;;;;;;;;;;5051905;28;20673;-68
2023/12/12 05:16:29;;;;;;;79.83;11.37;;;;;;;;;;5058756;28;20223;-68
2023/12/12 05:18:59;;;;;;;61.53;9.73;;;;;;;;;;5042838;28;20238;-68
2023/12/12 05:21:27;;;;;;;49.90;10.30;;;;;;;;;;5050517;28;20206;-67
2023/12/12 05:23:55;;;;;;;33.67;8.97;;;;;;;;;;5037084;28;20291;-70
2023/12/12 05:26:23;;;;;;;71.37;9.33;;;;;;;;;;5049598;28;20853;-67
2023/12/12 05:28:50;;;;;;;54.63;10.03;;;;;;;;;;5059770;28;20218;-69
2023/12/12 05:31:17;;;;;;;52.53;9.23;;;;;;;;;;5066546;28;20202;-70
2023/12/12 05:33:46;;;;;;;36.20;8.77;;;;;;;;;;5040724;28;20206;-68
2023/12/12 05:36:14;;;;;;;28.97;7.70;;;;;;;;;;5064901;28;20568;-70
2023/12/12 05:38:41;;;;;;;61.87;9.57;;;;;;;;;;5049687;28;20297;-70
2023/12/12 05:41:08;;;;;;;66.53;9.97;;;;;;;;;;5058486;28;20201;-69
2023/12/12 05:43:36;;;;;;;28.60;7.77;;;;;;;;;;5066887;28;20218;-69
2023/12/12 05:46:04;;;;;;;45.43;8.80;;;;;;;;;;5052723;28;20256;-69
2023/12/12 05:48:32;;;;;;;35.97;8.60;;;;;;;;;;5050003;28;20565;-69
2023/12/12 05:50:59;;;;;;;27.33;7.70;;;;;;;;;;5035224;28;20226;-68
2023/12/12 05:53:27;;;;;;;51.33;7.87;;;;;;;;;;5042978;28;20209;-69
2023/12/12 05:55:57;;;;;;;38.27;8.10;;;;;;;;;;5041139;28;20285;-69
2023/12/12 05:58:25;;;;;;;38.27;9.30;;;;;;;;;;5047457;28;20260;-69
2023/12/12 06:00:53;;;;;;;29.30;8.17;;;;;;;;;;5044154;28;20318;-70
2023/12/12 06:03:20;;;;;;;27.10;8.70;;;;;;;;;;5057082;28;20198;-68
2023/12/12 06:05:48;;;;;;;23.63;6.97;;;;;;;;;;5054782;28;20210;-70
2023/12/12 06:08:16;;;;;;;20.47;6.67;;;;;;;;;;5052521;28;20380;-69
2023/12/12 06:10:43;;;;;;;17.93;7.53;;;;;;;;;;5051003;28;20233;-69
2023/12/12 06:13:11;;;;;;;21.80;6.47;;;;;;;;;;5050535;28;20300;-70
2023/12/12 06:15:38;;;;;;;11.83;6.27;;;;;;;;;;5054875;28;20293;-68
2023/12/12 06:18:06;;;;;;;18.53;6.80;;;;;;;;;;5046847;28;20230;-70
2023/12/12 06:20:35;;;;;;;16.83;7.93;;;;;;;;;;5047397;28;20222;-67
2023/12/12 06:23:02;;;;;;;13.77;6.33;;;;;;;;;;5047411;28;20214;-70
2023/12/12 06:25:30;;;;;;;16.57;7.00;;;;;;;;;;5060569;28;20216;-69
2023/12/12 06:27:57;;;;;;;24.80;9.40;;;;;;;;;;5059556;28;20222;-70
2023/12/12 06:30:25;;;;;;;36.30;7.83;;;;;;;;;;5056624;28;20284;-70
2023/12/12 06:32:55;;;;;;;20.90;6.60;;;;;;;;;;5047355;28;20237;-69
2023/12/12 06:35:23;;;;;;;33.37;6.30;;;;;;;;;;5052174;28;20298;-69
2023/12/12 06:37:51;;;;;;;44.40;6.60;;;;;;;;;;5053626;28;20254;-69
2023/12/12 06:40:19;;;;;;;30.00;7.03;;;;;;;;;;5046693;28;20226;-70
2023/12/12 06:42:47;;;;;;;34.97;6.93;;;;;;;;;;5058184;28;20221;-68
2023/12/12 06:45:15;;;;;;;17.23;5.77;;;;;;;;;;5050545;28;20315;-69
2023/12/12 06:47:43;;;;;;;36.43;5.60;;;;;;;;;;5057845;28;20210;-68
2023/12/12 06:50:11;;;;;;;22.80;5.23;;;;;;;;;;5058576;28;20226;-70
2023/12/12 06:52:40;;;;;;;45.63;5.57;;;;;;;;;;5056756;28;20254;-69
2023/12/12 06:55:09;;;;;;;23.77;5.00;;;;;;;;;;5055898;28;20243;-68
2023/12/12 06:57:37;;;;;;;33.90;5.03;;;;;;;;;;5031963;28;20227;-68
2023/12/12 07:00:06;;;;;;;58.53;5.53;;;;;;;;;;5034903;28;20559;-70
2023/12/12 07:02:34;;;;;;;35.30;8.00;;;;;;;;;;5038857;28;20285;-69
2023/12/12 07:05:04;;;;;;;27.93;6.93;;;;;;;;;;5057429;28;20247;-68
2023/12/12 07:07:35;;;;;;;24.07;6.27;;;;;;;;;;5045402;28;20272;-69
2023/12/12 07:10:06;;;;;;;24.47;6.50;;;;;;;;;;5055522;28;20700;-70
2023/12/12 07:12:35;;;;;;;28.33;5.87;;;;;;;;;;5047187;28;20214;-69
2023/12/12 07:15:03;;;;;;;16.83;5.93;;;;;;;;;;5027029;28;20206;-70
2023/12/12 07:17:30;;;;;;;19.73;4.80;;;;;;;;;;5058606;28;20218;-69
2023/12/12 07:19:59;;;;;;;21.57;4.80;;;;;;;;;;5048904;28;20803;-69
2023/12/12 07:22:28;;;;;;;15.97;5.00;;;;;;;;;;5050939;28;20677;-70
2023/12/12 07:24:57;;;;;;;11.50;4.20;;;;;;;;;;5045878;28;20268;-69
2023/12/12 07:27:25;;;;;;;8.90;4.17;;;;;;;;;;5038974;28;20229;-69
2023/12/12 07:29:52;;;;;;;14.80;3.90;;;;;;;;;;5052146;28;20612;-68
2023/12/12 07:32:20;;;;;;;8.40;3.80;;;;;;;;;;5047578;28;20206;-70
2023/12/12 07:34:47;;;;;;;13.50;4.73;;;;;;;;;;5030608;28;20210;-69
2023/12/12 07:37:14;;;;;;;16.60;4.70;;;;;;;;;;5044641;28;20218;-70
2023/12/12 07:39:42;;;;;;;20.30;5.27;;;;;;;;;;5052863;28;20222;-69
2023/12/12 07:42:09;;;;;;;20.90;7.53;;;;;;;;;;5050782;28;20237;-69
2023/12/12 07:44:36;;;;;;;30.10;10.03;;;;;;;;;;5060358;28;20198;-70
2023/12/12 07:47:04;;;;;;;18.37;9.53;;;;;;;;;;5060813;28;20205;-69
2023/12/12 07:49:31;;;;;;;19.40;11.07;;;;;;;;;;5050769;28;20226;-69
2023/12/12 07:51:59;;;;;;;15.57;9.37;;;;;;;;;;5058748;28;20266;-69
2023/12/12 07:54:27;;;;;;;32.17;8.37;;;;;;;;;;5050849;28;20622;-70
2023/12/12 07:56:54;;;;;;;11.47;6.73;;;;;;;;;;5034219;28;20210;-69
2023/12/12 07:59:22;;;;;;;11.90;5.70;;;;;;;;;;5050340;28;20218;-69
2023/12/12 08:01:49;;;;;;;20.40;9.43;;;;;;;;;;5036686;28;20649;-69
2023/12/12 08:04:17;;;;;;;17.73;5.90;;;;;;;;;;5045452;28;20207;-69
2023/12/12 08:06:44;;;;;;;30.03;5.13;;;;;;;;;;5051814;28;20231;-67
2023/12/12 08:09:12;;;;;;;22.83;4.90;;;;;;;;;;5051333;28;20233;-69
2023/12/12 08:11:39;;;;;;;26.63;5.80;;;;;;;;;;5060760;28;20209;-69
2023/12/12 08:14:07;;;;;;;26.40;5.40;;;;;;;;;;5053090;28;20584;-70
2023/12/12 08:16:35;;;;;;;39.47;5.67;;;;;;;;;;5062110;28;20214;-69
2023/12/12 08:19:03;;;;;;;24.43;4.83;;;;;;;;;;5051923;28;20324;-69
2023/12/12 08:21:30;;;;;;;15.50;4.77;;;;;;;;;;5062422;28;20202;-70
2023/12/12 08:23:58;;;;;;;14.67;4.37;;;;;;;;;;5058989;28;20294;-68
2023/12/12 08:26:25;;;;;;;7.57;4.30;;;;;;;;;;5054287;28;20209;-69
2023/12/12 08:28:52;;;;;;;7.90;3.77;;;;;;;;;;5058736;28;20209;-68
2023/12/12 08:31:19;;;;;;;10.30;3.70;;;;;;;;;;5057680;28;20214;-69
2023/12/12 08:33:47;;;;;;;14.00;3.90;;;;;;;;;;5058360;28;20728;-68
2023/12/12 08:36:14;;;;;;;12.13;4.50;;;;;;;;;;5051879;28;20234;-69
2023/12/12 08:38:45;;;;;;;9.60;4.60;;;;;;;;;;5039035;28;20229;-70
2023/12/12 08:41:12;;;;;;;9.07;4.90;;;;;;;;;;5048517;28;20199;-69
2023/12/12 08:43:41;;;;;;;8.73;4.47;;;;;;;;;;5055620;28;20672;-69
2023/12/12 08:46:08;;;;;;;7.17;3.53;;;;;;;;;;5053978;28;20190;-68
2023/12/12 08:48:36;;;;;;;6.70;3.40;;;;;;;;;;5050793;28;20198;-69
2023/12/12 08:51:03;;;;;;;8.63;4.23;;;;;;;;;;5051259;28;20218;-69
2023/12/12 08:53:31;;;;;;;7.37;4.37;;;;;;;;;;5050828;28;20687;-69
2023/12/12 08:55:58;;;;;;;5.70;3.63;;;;;;;;;;5062425;28;20205;-70
2023/12/12 08:58:25;;;;;;;7.17;3.73;;;;;;;;;;5057245;28;20307;-70
2023/12/12 09:00:54;;;;;;;7.73;3.83;;;;;;;;;;5051494;28;20285;-69
2023/12/12 09:03:22;;;;;;;6.97;4.13;;;;;;;;;;5027453;28;20261;-70
2023/12/12 09:05:49;;;;;;;6.40;4.33;;;;;;;;;;5045418;28;20206;-68
2023/12/12 09:08:17;;;;;;;5.37;3.40;;;;;;;;;;5039232;28;21558;-68
2023/12/12 09:10:44;;;;;;;4.57;3.37;;;;;;;;;;5054384;28;20225;-70
2023/12/12 09:13:11;;;;;;;4.60;3.27;;;;;;;;;;5052483;28;20202;-70
2023/12/12 09:15:39;;;;;;;4.27;2.97;;;;;;;;;;5047939;28;20276;-69
2023/12/12 09:18:06;;;;;;;3.80;2.80;;;;;;;;;;5038840;28;20241;-69
2023/12/12 09:20:46;;;;;;;4.57;2.97;;;;;;;;;;5049511;28;20309;-69
2023/12/12 09:23:14;;;;;;;3.90;2.77;;;;;;;;;;5038678;28;20205;-69
2023/12/12 09:25:42;;;;;;;5.63;3.00;;;;;;;;;;5047738;28;20213;-69
2023/12/12 09:28:09;;;;;;;3.80;2.80;;;;;;;;;;5061803;28;20695;-69
2023/12/12 09:30:37;;;;;;;3.00;2.60;;;;;;;;;;5061080;28;20623;-69
2023/12/12 09:33:05;;;;;;;8.77;5.07;;;;;;;;;;5050277;28;20213;-70
2023/12/12 09:35:36;;;;;;;6.20;3.60;;;;;;;;;;5043019;28;20266;-70
2023/12/12 09:38:03;;;;;;;5.13;2.70;;;;;;;;;;5051110;28;20285;-68
2023/12/12 09:40:30;;;;;;;3.73;2.90;;;;;;;;;;5050533;28;20218;-69
2023/12/12 09:42:58;;;;;;;5.50;2.93;;;;;;;;;;5047344;28;20198;-69
2023/12/12 09:45:25;;;;;;;4.23;2.83;;;;;;;;;;5043283;28;20198;-69
2023/12/12 09:47:55;;;;;;;5.33;2.47;;;;;;;;;;5035960;28;20210;-68
2023/12/12 09:50:22;;;;;;;6.07;5.30;;;;;;;;;;5057308;28;20650;-67
2023/12/12 09:52:51;;;;;;;5.03;4.37;;;;;;;;;;5053741;28;20211;-68
2023/12/12 09:55:24;;;;;;;3.73;3.43;;;;;;;;;;5034269;28;20210;-69
2023/12/12 09:57:51;;;;;;;4.67;3.33;;;;;;;;;;5045471;28;20318;-70
2023/12/12 10:00:21;;;;;;;35.23;31.27;;;;;;;;;;5046048;28;20568;-68
2023/12/12 10:02:50;;;;;;;3.50;2.43;;;;;;;;;;5046517;28;20729;-68
2023/12/12 10:05:19;;;;;;;2.03;1.73;;;;;;;;;;5027045;28;20203;-70
2023/12/12 10:07:49;;;;;;;2.47;1.63;;;;;;;;;;5050759;28;20228;-70
2023/12/12 10:10:31;;;;;;;2.10;2.00;;;;;;;;;;5049852;28;20229;-69
2023/12/12 10:12:59;;;;;;;1.70;1.60;;;;;;;;;;5054620;28;20214;-70
2023/12/12 10:15:27;;;;;;;1.97;1.87;;;;;;;;;;5043507;28;20264;-69
2023/12/12 10:17:59;;;;;;;2.20;2.07;;;;;;;;;;5044901;28;20253;-68
2023/12/12 10:20:28;;;;;;;2.93;2.57;;;;;;;;;;5055900;28;20232;-67
2023/12/12 10:23:00;;;;;;;2.47;2.27;;;;;;;;;;5051247;28;20237;-69
2023/12/12 10:25:29;;;;;;;3.30;3.00;;;;;;;;;;5041651;28;20650;-69
2023/12/12 10:27:57;;;;;;;1.37;1.37;;;;;;;;;;5039739;28;20294;-69
2023/12/12 10:30:26;;;;;;;2.27;2.17;;;;;;;;;;5050484;28;20548;-68
2023/12/12 10:32:55;;;;;;;3.90;3.43;;;;;;;;;;5049556;28;20207;-70
2023/12/12 10:35:23;;;;;;;1.93;1.83;;;;;;;;;;5037066;28;20284;-67
2023/12/12 10:37:52;;;;;;;1.50;1.50;;;;;;;;;;5040984;28;20248;-70
2023/12/12 10:40:21;;;;;;;1.90;1.80;;;;;;;;;;5031603;28;20231;-69
2023/12/12 10:42:51;;;;;;;1.90;1.80;;;;;;;;;;5044403;28;20261;-68
2023/12/12 10:45:20;;;;;;;3.03;2.83;;;;;;;;;;5055623;28;20202;-70
2023/12/12 10:47:48;;;;;;;3.10;2.27;;;;;;;;;;5047321;28;20360;-70
2023/12/12 10:50:16;;;;;;;2.30;1.73;;;;;;;;;;5052592;28;20309;-70
2023/12/12 10:52:45;;;;;;;0.97;0.97;;;;;;;;;;5057244;28;20289;-69
2023/12/12 10:55:13;;;;;;;1.03;1.03;;;;;;;;;;5050354;28;20249;-70
2023/12/12 10:57:44;;;;;;;2.23;1.50;;;;;;;;;;5038209;28;20193;-70
2023/12/12 11:00:13;;;;;;;1.80;1.70;;;;;;;;;;5054825;28;20724;-70
2023/12/12 11:02:45;;;;;;;1.40;1.30;;;;;;;;;;5035064;28;20206;-69
2023/12/12 11:05:14;;;;;;;1.30;1.30;;;;;;;;;;5056217;28;20281;-69
2023/12/12 11:07:45;;;;;;;1.00;1.00;;;;;;;;;;5049562;28;20197;-69
2023/12/12 11:10:14;;;;;;;1.17;1.10;;;;;;;;;;5068727;28;20214;-69
2023/12/12 11:12:56;;;;;;;0.97;0.97;;;;;;;;;;5049998;28;20713;-68
2023/12/12 11:15:25;;;;;;;1.10;1.10;;;;;;;;;;5050040;28;20241;-69
2023/12/12 11:17:52;;;;;;;1.00;1.00;;;;;;;;;;5027795;28;20258;-69
2023/12/12 11:20:20;;;;;;;1.43;1.33;;;;;;;;;;5049757;28;20313;-70
2023/12/12 11:22:49;;;;;;;1.00;1.00;;;;;;;;;;5048190;28;20195;-70
2023/12/12 11:25:20;;;;;;;1.37;1.27;;;;;;;;;;5051427;28;20221;-70
2023/12/12 11:27:50;;;;;;;1.57;1.50;;;;;;;;;;5056788;28;20186;-69
2023/12/12 11:30:18;;;;;;;1.30;1.20;;;;;;;;;;5052859;28;20226;-68
2023/12/12 11:32:46;;;;;;;2.13;2.03;;;;;;;;;;5038233;28;20225;-70
2023/12/12 11:35:28;;;;;;;5.10;3.60;;;;;;;;;;5038973;28;20202;-70
2023/12/12 11:37:57;;;;;;;3.10;2.60;;;;;;;;;;5056423;28;20794;-70
2023/12/12 11:40:25;;;;;;;5.80;4.50;;;;;;;;;;5046638;28;20245;-68
2023/12/12 11:42:56;;;;;;;3.90;3.40;;;;;;;;;;5058452;28;20209;-70
2023/12/12 11:45:30;;;;;;;3.30;2.93;;;;;;;;;;5053521;28;20210;-69
2023/12/12 11:47:58;;;;;;;4.90;3.17;;;;;;;;;;5030256;28;20214;-70
2023/12/12 11:50:26;;;;;;;2.27;2.13;;;;;;;;;;5050825;28;20276;-70
2023/12/12 11:52:53;;;;;;;6.03;5.20;;;;;;;;;;5056187;28;20616;-70
2023/12/12 11:55:36;;;;;;;3.40;2.37;;;;;;;;;;5046243;28;20294;-70
2023/12/12 11:58:04;;;;;;;6.70;6.03;;;;;;;;;;5058138;28;20202;-70
2023/12/12 12:00:33;;;;;;;6.93;5.53;;;;;;;;;;5070838;28;20221;-70
2023/12/12 12:03:01;;;;;;;5.07;4.57;;;;;;;;;;5052819;28;20233;-68
2023/12/12 12:05:28;;;;;;;2.40;2.20;;;;;;;;;;5053609;28;20381;-68
2023/12/12 12:07:56;;;;;;;2.33;2.10;;;;;;;;;;5034841;28;20210;-68
2023/12/12 12:10:24;;;;;;;3.20;2.90;;;;;;;;;;5049025;28;20592;-70
2023/12/12 12:12:55;;;;;;;2.20;2.10;;;;;;;;;;5050338;28;20194;-70
2023/12/12 12:15:24;;;;;;;2.40;2.20;;;;;;;;;;5042535;28;20198;-69
2023/12/12 12:17:52;;;;;;;2.47;2.27;;;;;;;;;;5041057;28;20320;-70
2023/12/12 12:20:21;;;;;;;3.13;2.60;;;;;;;;;;5048531;28;20219;-70
2023/12/12 12:22:49;;;;;;;1.93;1.80;;;;;;;;;;5050581;28;20230;-69
2023/12/12 12:25:22;;;;;;;8.13;4.37;;;;;;;;;;5050360;28;20206;-70
2023/12/12 12:27:54;;;;;;;3.20;2.90;;;;;;;;;;5050536;28;20208;-69
2023/12/12 12:30:25;;;;;;;2.70;2.50;;;;;;;;;;5056337;28;20249;-70
2023/12/12 12:32:57;;;;;;;3.10;2.90;;;;;;;;;;5066574;28;20197;-70
2023/12/12 12:35:33;;;;;;;2.90;2.70;;;;;;;;;;5048531;28;20229;-69
2023/12/12 12:38:02;;;;;;;2.83;2.30;;;;;;;;;;5038727;28;20647;-69
2023/12/12 12:40:34;;;;;;;3.10;2.80;;;;;;;;;;5028430;28;20231;-69
2023/12/12 12:43:04;;;;;;;4.70;3.43;;;;;;;;;;5058425;28;20231;-70
2023/12/12 12:45:33;;;;;;;3.30;3.00;;;;;;;;;;5035055;28;20213;-68
2023/12/12 12:48:00;;;;;;;2.80;2.60;;;;;;;;;;5057934;28;20194;-67
2023/12/12 12:50:31;;;;;;;1.90;1.80;;;;;;;;;;5054889;28;20232;-69
2023/12/12 12:53:08;;;;;;;2.70;2.50;;;;;;;;;;5049384;28;20221;-69
2023/12/12 12:55:35;;;;;;;2.33;1.70;;;;;;;;;;5047450;28;20202;-70
2023/12/12 12:58:03;;;;;;;5.07;4.10;;;;;;;;;;5057080;28;20205;-70
2023/12/12 13:00:32;;;;;;;4.80;4.00;;;;;;;;;;5060931;28;20229;-70
2023/12/12 13:03:00;;;;;;;3.43;3.13;;;;;;;;;;5064442;28;20201;-68
2023/12/12 13:05:29;;;;;;;2.40;2.27;;;;;;;;;;5053822;28;20206;-69
2023/12/12 13:07:57;;;;;;;1.70;1.60;;;;;;;;;;5057960;28;20331;-69
2023/12/12 13:10:25;;;;;;;1.20;1.20;;;;;;;;;;5053563;28;20229;-68
2023/12/12 13:13:12;;;;;;;1.20;1.20;;;;;;;;;;5042847;28;20206;-69
2023/12/12 13:15:40;;;;;;;1.47;1.47;;;;;;;;;;5045004;28;20207;-68
2023/12/12 13:18:07;;;;;;;1.77;1.67;;;;;;;;;;5040969;28;20237;-70
2023/12/12 13:20:38;;;;;;;1.90;1.80;;;;;;;;;;5064617;28;20254;-68
2023/12/12 13:23:09;;;;;;;1.33;1.30;;;;;;;;;;5038064;28;20199;-70
2023/12/12 13:25:36;;;;;;;1.10;1.10;;;;;;;;;;5057375;28;20229;-70
2023/12/12 13:28:04;;;;;;;1.47;1.10;;;;;;;;;;5061285;28;20226;-69
2023/12/12 13:30:33;;;;;;;1.10;1.10;;;;;;;;;;5036500;28;20226;-69
2023/12/12 13:33:03;;;;;;;1.60;1.50;;;;;;;;;;5060636;28;20564;-68
2023/12/12 13:35:31;;;;;;;1.60;1.50;;;;;;;;;;5056996;28;20209;-68
2023/12/12 13:38:04;;;;;;;1.90;1.80;;;;;;;;;;5059199;28;20289;-70
2023/12/12 13:40:32;;;;;;;2.20;2.10;;;;;;;;;;5052216;28;20272;-69
2023/12/12 13:43:00;;;;;;;2.10;2.00;;;;;;;;;;5042508;28;20212;-69
2023/12/12 13:45:27;;;;;;;2.30;2.20;;;;;;;;;;5029217;28;20261;-69
2023/12/12 13:47:55;;;;;;;2.03;1.93;;;;;;;;;;5050205;28;20575;-70
2023/12/12 13:50:25;;;;;;;2.50;2.40;;;;;;;;;;5051003;28;20638;-70
2023/12/12 13:52:53;;;;;;;3.13;2.50;;;;;;;;;;5050595;28;20207;-70
2023/12/12 13:55:21;;;;;;;2.63;2.30;;;;;;;;;;5054772;28;20212;-69
2023/12/12 13:57:49;;;;;;;2.90;2.70;;;;;;;;;;5059271;28;20210;-69
2023/12/12 14:00:25;;;;;;;2.90;2.70;;;;;;;;;;5046528;28;20237;-70
2023/12/12 14:02:52;;;;;;;3.17;2.90;;;;;;;;;;5023275;28;20233;-69
2023/12/12 14:05:20;;;;;;;2.30;2.20;;;;;;;;;;5041866;28;20201;-70
2023/12/12 14:07:49;;;;;;;2.07;1.97;;;;;;;;;;5050125;28;20203;-70
2023/12/12 14:10:20;;;;;;;1.80;1.70;;;;;;;;;;5053045;28;20226;-70
2023/12/12 14:13:00;;;;;;;1.70;1.60;;;;;;;;;;5045362;28;20202;-69
2023/12/12 14:15:29;;;;;;;1.63;1.50;;;;;;;;;;5057555;28;20202;-69
2023/12/12 14:17:57;;;;;;;1.57;1.50;;;;;;;;;;5053485;28;20324;-69
2023/12/12 14:20:25;;;;;;;2.10;2.00;;;;;;;;;;5057981;28;20686;-69
2023/12/12 14:22:54;;;;;;;2.33;2.13;;;;;;;;;;5060742;28;20674;-69
2023/12/12 14:25:37;;;;;;;2.20;2.10;;;;;;;;;;5054297;28;20221;-69
2023/12/12 14:28:06;;;;;;;2.83;2.30;;;;;;;;;;5051953;28;20206;-70
2023/12/12 14:30:34;;;;;;;2.97;2.77;;;;;;;;;;5032106;28;20751;-70
2023/12/12 14:33:04;;;;;;;3.13;2.93;;;;;;;;;;5052511;28;20198;-69
2023/12/12 14:35:40;;;;;;;4.90;4.50;;;;;;;;;;5050539;28;20210;-69
2023/12/12 14:38:07;;;;;;;3.30;3.10;;;;;;;;;;5045668;28;20238;-69
2023/12/12 14:40:35;;;;;;;3.40;3.10;;;;;;;;;;5050492;28;20740;-69
2023/12/12 14:43:04;;;;;;;3.57;3.27;;;;;;;;;;5057246;28;20290;-70
2023/12/12 14:45:33;;;;;;;4.53;3.47;;;;;;;;;;5047609;28;20282;-69